createdAt,value
2023-02-24T00:02:15.173Z,100906.66
2023-02-24T00:04:44.121Z,100906.19
2023-02-24T00:07:12.774Z,100911.69
2023-02-24T00:09:40.433Z,100909.56
2023-02-24T00:12:11.518Z,100904.66
2023-02-24T00:14:41.060Z,100901.94
2023-02-24T00:17:08.896Z,100892.03
2023-02-24T00:19:36.975Z,100892.25
2023-02-24T00:22:06.005Z,100888.44
2023-02-24T00:24:33.612Z,100894.34
2023-02-24T00:27:07.495Z,100897.97
2023-02-24T00:29:39.823Z,100899.03
2023-02-24T00:32:12.644Z,100895.28
2023-02-24T00:34:41.620Z,100894.66
2023-02-24T00:37:09.375Z,100886.00
2023-02-24T00:39:41.382Z,100890.25
2023-02-24T00:42:11.823Z,100887.03
2023-02-24T00:44:41.457Z,100892.75
2023-02-24T00:47:10.412Z,100881.63
2023-02-24T00:49:43.149Z,100875.78
2023-02-24T00:52:21.057Z,100877.81
2023-02-24T00:54:49.853Z,100877.22
2023-02-24T00:57:18.659Z,100881.00
2023-02-24T00:59:47.877Z,100875.00
2023-02-24T01:02:15.794Z,100876.19
2023-02-24T01:04:45.323Z,100883.38
2023-02-24T01:07:14.407Z,100877.97
2023-02-24T01:09:44.162Z,100874.47
2023-02-24T01:12:38.562Z,100867.28
2023-02-24T01:15:09.166Z,100866.84
2023-02-24T01:17:37.991Z,100870.75
2023-02-24T01:20:19.832Z,100865.72
2023-02-24T01:22:49.691Z,100857.22
2023-02-24T01:25:20.142Z,100856.03
2023-02-24T01:27:47.952Z,100857.03
2023-02-24T01:30:18.395Z,100852.78
2023-02-24T01:32:47.744Z,100852.88
2023-02-24T01:35:15.737Z,100844.00
2023-02-24T01:37:43.280Z,100849.19
2023-02-24T01:40:18.080Z,100855.00
2023-02-24T01:42:47.530Z,100858.78
2023-02-24T01:45:18.740Z,100854.97
2023-02-24T01:47:47.506Z,100842.22
2023-02-24T01:50:16.251Z,100842.91
2023-02-24T01:52:47.343Z,100837.72
2023-02-24T01:55:16.746Z,100855.09
2023-02-24T01:57:46.218Z,100824.94
2023-02-24T02:00:37.499Z,100835.28
2023-02-24T02:03:12.443Z,100825.50
2023-02-24T02:05:41.316Z,100831.94
2023-02-24T02:08:09.373Z,100831.13
2023-02-24T02:10:40.749Z,100824.00
2023-02-24T02:13:08.251Z,100817.28
2023-02-24T02:15:40.673Z,100808.56
2023-02-24T02:18:21.138Z,100810.06
2023-02-24T02:20:53.783Z,100816.50
2023-02-24T02:23:58.440Z,100805.94
2023-02-24T02:26:44.202Z,100807.00
2023-02-24T02:29:36.739Z,100808.25
2023-02-24T02:32:35.157Z,100801.69
2023-02-24T02:35:09.356Z,100789.97
2023-02-24T02:37:43.080Z,100783.94
2023-02-24T02:40:19.855Z,100784.56
2023-02-24T02:43:02.279Z,100773.25
2023-02-24T02:45:40.455Z,100780.16
2023-02-24T02:48:20.739Z,100784.00
2023-02-24T02:51:04.181Z,100776.13
2023-02-24T02:53:42.590Z,100777.41
2023-02-24T02:56:18.156Z,100773.16
2023-02-24T02:58:49.212Z,100778.78
2023-02-24T03:01:21.014Z,100775.69
2023-02-24T03:03:53.378Z,100775.03
2023-02-24T03:06:33.092Z,100777.06
2023-02-24T03:09:16.141Z,100775.44
2023-02-24T03:11:53.779Z,100768.13
2023-02-24T03:14:24.823Z,100762.13
2023-02-24T03:16:53.136Z,100772.06
2023-02-24T03:19:26.626Z,100773.47
2023-02-24T03:22:25.158Z,100772.63
2023-02-24T03:24:52.979Z,100768.91
2023-02-24T03:27:39.855Z,100773.41
2023-02-24T03:30:16.946Z,100775.91
2023-02-24T03:33:19.718Z,100773.47
2023-02-24T03:35:51.198Z,100778.19
2023-02-24T03:38:20.047Z,100780.88
2023-02-24T03:40:49.235Z,100775.16
2023-02-24T03:43:30.576Z,100765.47
2023-02-24T03:46:00.471Z,100771.94
2023-02-24T03:48:28.651Z,100770.03
2023-02-24T03:50:59.457Z,100761.41
2023-02-24T03:53:57.118Z,100761.13
2023-02-24T03:56:34.227Z,100751.47
2023-02-24T03:59:25.517Z,100745.56
2023-02-24T04:02:00.445Z,100740.50
2023-02-24T04:05:03.806Z,100737.13
2023-02-24T04:07:52.085Z,100729.72
2023-02-24T04:10:34.141Z,100732.47
2023-02-24T04:13:38.143Z,100727.06
2023-02-24T04:16:18.373Z,100732.34
2023-02-24T04:18:50.429Z,100720.13
2023-02-24T04:21:20.311Z,100718.63
2023-02-24T04:23:48.133Z,100717.78
2023-02-24T04:26:17.088Z,100716.50
2023-02-24T04:28:48.637Z,100712.72
2023-02-24T04:31:18.472Z,100708.81
2023-02-24T04:33:50.343Z,100695.63
2023-02-24T04:36:21.950Z,100688.94
2023-02-24T04:38:49.868Z,100695.53
2023-02-24T04:41:21.962Z,100689.25
2023-02-24T04:43:53.483Z,100696.09
2023-02-24T04:46:21.129Z,100700.53
2023-02-24T04:48:48.629Z,100691.78
2023-02-24T04:51:16.053Z,100695.94
2023-02-24T04:53:43.294Z,100690.44
2023-02-24T04:56:10.613Z,100689.88
2023-02-24T04:58:39.727Z,100687.69
2023-02-24T05:01:11.118Z,100689.84
2023-02-24T05:03:42.359Z,100683.53
2023-02-24T05:06:17.258Z,100684.66
2023-02-24T05:08:45.116Z,100691.47
2023-02-24T05:11:15.987Z,100690.47
2023-02-24T05:13:47.176Z,100692.72
2023-02-24T05:16:17.527Z,100687.16
2023-02-24T05:18:45.972Z,100687.59
2023-02-24T05:21:34.413Z,100682.16
2023-02-24T05:24:06.777Z,100677.78
2023-02-24T05:26:37.319Z,100676.47
2023-02-24T05:29:05.176Z,100679.41
2023-02-24T05:31:32.552Z,100675.56
2023-02-24T05:34:05.928Z,100671.50
2023-02-24T05:36:38.948Z,100674.09
2023-02-24T05:39:12.296Z,100675.63
2023-02-24T05:41:42.449Z,100683.53
2023-02-24T05:44:13.772Z,100666.75
2023-02-24T05:46:42.910Z,100672.25
2023-02-24T05:49:23.421Z,100681.34
2023-02-24T05:51:55.238Z,100670.81
2023-02-24T05:54:31.134Z,100670.38
2023-02-24T05:57:11.836Z,100663.84
2023-02-24T05:59:41.304Z,100657.94
2023-02-24T06:02:11.420Z,100653.25
2023-02-24T06:04:39.948Z,100653.47
2023-02-24T06:07:13.952Z,100664.00
2023-02-24T06:09:43.109Z,100664.72
2023-02-24T06:12:11.577Z,100649.91
2023-02-24T06:14:39.091Z,100652.22
2023-02-24T06:17:06.437Z,100651.41
2023-02-24T06:19:34.012Z,100651.47
2023-02-24T06:22:01.871Z,100652.78
2023-02-24T06:24:31.084Z,100641.31
2023-02-24T06:27:09.819Z,100644.69
2023-02-24T06:29:37.975Z,100642.22
2023-02-24T06:32:11.585Z,100641.38
2023-02-24T06:34:39.720Z,100635.09
2023-02-24T06:37:08.962Z,100646.16
2023-02-24T06:39:37.022Z,100639.41
2023-02-24T06:42:05.876Z,100657.03
2023-02-24T06:44:34.449Z,100649.25
2023-02-24T06:47:02.742Z,100651.91
2023-02-24T06:49:30.221Z,100652.06
2023-02-24T06:51:57.764Z,100653.94
2023-02-24T06:54:29.052Z,100653.16
2023-02-24T06:57:08.242Z,100660.59
2023-02-24T06:59:36.061Z,100659.06
2023-02-24T07:02:15.184Z,100665.56
2023-02-24T07:04:45.467Z,100669.56
2023-02-24T07:07:14.686Z,100672.50
2023-02-24T07:09:42.713Z,100676.78
2023-02-24T07:12:11.193Z,100677.50
2023-02-24T07:14:38.743Z,100677.06
2023-02-24T07:17:06.616Z,100684.31
2023-02-24T07:19:34.582Z,100688.25
2023-02-24T07:22:03.925Z,100675.22
2023-02-24T07:24:36.919Z,100673.53
2023-02-24T07:27:22.561Z,100672.41
2023-02-24T07:29:52.978Z,100675.41
2023-02-24T07:32:25.668Z,100669.06
2023-02-24T07:34:53.289Z,100669.91
2023-02-24T07:37:21.195Z,100673.56
2023-02-24T07:39:50.161Z,100681.59
2023-02-24T07:42:17.413Z,100679.91
2023-02-24T07:44:48.220Z,100671.53
2023-02-24T07:47:16.420Z,100680.22
2023-02-24T07:49:45.238Z,100670.81
2023-02-24T07:52:12.845Z,100669.72
2023-02-24T07:54:40.571Z,100668.66
2023-02-24T07:57:13.359Z,100675.75
2023-02-24T07:59:45.207Z,100674.44
2023-02-24T08:02:13.894Z,100676.53
2023-02-24T08:04:44.596Z,100680.94
2023-02-24T08:07:14.719Z,100672.97
2023-02-24T08:09:45.480Z,100667.16
2023-02-24T08:12:21.983Z,100668.97
2023-02-24T08:14:53.515Z,100665.69
2023-02-24T08:17:26.517Z,100675.69
2023-02-24T08:20:15.791Z,100677.38
2023-02-24T08:22:46.802Z,100667.41
2023-02-24T08:25:19.421Z,100667.03
2023-02-24T08:28:06.713Z,100665.34
2023-02-24T08:30:40.703Z,100662.38
2023-02-24T08:33:11.419Z,100654.00
2023-02-24T08:35:45.121Z,100659.19
2023-02-24T08:38:18.163Z,100647.56
2023-02-24T08:40:51.375Z,100646.38
2023-02-24T08:43:30.760Z,100656.19
2023-02-24T08:46:13.593Z,100641.59
2023-02-24T08:48:43.533Z,100650.06
2023-02-24T08:51:15.991Z,100640.69
2023-02-24T08:53:46.823Z,100644.09
2023-02-24T08:56:24.081Z,100632.91
2023-02-24T08:58:57.701Z,100634.16
2023-02-24T09:01:27.950Z,100631.75
2023-02-24T09:03:58.133Z,100621.66
2023-02-24T09:07:11.589Z,100630.00
2023-02-24T09:09:42.376Z,100630.53
2023-02-24T09:12:22.031Z,100624.97
2023-02-24T09:14:57.156Z,100634.72
2023-02-24T09:18:02.030Z,100632.13
2023-02-24T09:20:47.939Z,100629.47
2023-02-24T09:23:21.116Z,100631.81
2023-02-24T09:25:54.369Z,100632.38
2023-02-24T09:28:26.922Z,100633.53
2023-02-24T09:30:57.242Z,100644.34
2023-02-24T09:33:28.689Z,100632.19
2023-02-24T09:36:10.319Z,100645.09
2023-02-24T09:38:58.273Z,100646.97
2023-02-24T09:41:54.648Z,100650.72
2023-02-24T09:44:40.296Z,100657.94
2023-02-24T09:47:31.099Z,100646.91
2023-02-24T09:50:04.531Z,100640.50
2023-02-24T09:52:41.550Z,100641.53
2023-02-24T09:55:46.870Z,100648.91
2023-02-24T09:58:43.299Z,100639.47
2023-02-24T10:01:33.728Z,100630.53
2023-02-24T10:04:21.501Z,100631.00
2023-02-24T10:06:49.808Z,100629.75
2023-02-24T10:09:26.647Z,100630.81
2023-02-24T10:12:04.544Z,100633.31
2023-02-24T10:15:15.585Z,100622.78
2023-02-24T10:17:47.394Z,100607.22
2023-02-24T10:20:39.701Z,100608.44
2023-02-24T10:23:29.814Z,100609.97
2023-02-24T10:26:07.199Z,100599.22
2023-02-24T10:28:57.457Z,100587.22
2023-02-24T10:31:30.337Z,100592.53
2023-02-24T10:34:01.965Z,100576.28
2023-02-24T10:36:35.610Z,100575.97
2023-02-24T10:39:25.893Z,100585.25
2023-02-24T10:41:58.730Z,100580.56
2023-02-24T10:44:36.384Z,100582.81
2023-02-24T10:47:13.299Z,100575.50
2023-02-24T10:49:57.970Z,100575.47
2023-02-24T10:52:37.486Z,100561.84
2023-02-24T10:55:47.186Z,100565.22
2023-02-24T10:58:28.362Z,100566.63
2023-02-24T11:01:07.262Z,100564.81
2023-02-24T11:03:46.401Z,100563.44
2023-02-24T11:06:41.927Z,100562.44
2023-02-24T11:09:29.360Z,100551.88
2023-02-24T11:12:21.341Z,100554.38
2023-02-24T11:15:18.498Z,100541.06
2023-02-24T11:17:58.337Z,100538.88
2023-02-24T11:20:48.005Z,100537.53
2023-02-24T11:23:38.805Z,100537.84
2023-02-24T11:26:17.228Z,100532.16
2023-02-24T11:28:56.566Z,100515.75
2023-02-24T11:31:56.001Z,100513.16
2023-02-24T11:34:25.287Z,100510.84
2023-02-24T11:37:09.364Z,100496.66
2023-02-24T11:39:55.416Z,100498.69
2023-02-24T11:42:27.325Z,100498.44
2023-02-24T11:45:01.694Z,100496.25
2023-02-24T11:47:33.858Z,100490.09
2023-02-24T11:50:26.465Z,100475.78
2023-02-24T11:52:56.097Z,100471.63
2023-02-24T11:55:32.588Z,100471.22
2023-02-24T11:58:03.498Z,100462.22
2023-02-24T12:00:34.000Z,100447.53
2023-02-24T12:03:13.752Z,100440.91
2023-02-24T12:05:44.867Z,100440.84
2023-02-24T12:08:22.527Z,100437.75
2023-02-24T12:10:52.573Z,100437.97
2023-02-24T12:13:22.130Z,100434.41
2023-02-24T12:16:12.923Z,100429.47
2023-02-24T12:18:52.934Z,100428.38
2023-02-24T12:21:24.673Z,100439.66
2023-02-24T12:23:55.660Z,100426.59
2023-02-24T12:26:27.352Z,100418.84
2023-02-24T12:29:22.897Z,100425.22
2023-02-24T12:32:16.123Z,100418.34
2023-02-24T12:34:51.780Z,100409.31
2023-02-24T12:37:37.271Z,100410.03
2023-02-24T12:40:31.932Z,100408.06
2023-02-24T12:43:04.820Z,100403.38
2023-02-24T12:45:54.122Z,100390.53
2023-02-24T12:48:50.346Z,100386.22
2023-02-24T12:51:42.816Z,100386.50
2023-02-24T12:54:13.292Z,100380.19
2023-02-24T12:56:54.685Z,100373.69
2023-02-24T12:59:26.465Z,100376.28
2023-02-24T13:02:00.344Z,100374.03
2023-02-24T13:04:45.636Z,100365.13
2023-02-24T13:07:37.042Z,100366.78
2023-02-24T13:10:13.205Z,100371.31
2023-02-24T13:12:55.019Z,100367.63
2023-02-24T13:15:25.476Z,100359.03
2023-02-24T13:17:57.000Z,100347.88
2023-02-24T13:20:36.576Z,100344.06
2023-02-24T13:23:20.605Z,100358.75
2023-02-24T13:25:53.035Z,100339.59
2023-02-24T13:28:33.366Z,100334.38
2023-02-24T13:31:14.131Z,100329.03
2023-02-24T13:33:43.921Z,100330.22
2023-02-24T13:36:23.675Z,100316.53
2023-02-24T13:39:46.590Z,100313.13
2023-02-24T13:42:20.333Z,100313.34
2023-02-24T13:44:52.071Z,100314.50
2023-02-24T13:47:43.173Z,100308.16
2023-02-24T13:50:27.717Z,100295.53
2023-02-24T13:53:10.315Z,100292.13
2023-02-24T13:56:05.136Z,100291.63
2023-02-24T13:59:06.765Z,100285.13
2023-02-24T14:01:56.407Z,100298.66
2023-02-24T14:04:30.941Z,100289.31
2023-02-24T14:07:05.210Z,100283.72
2023-02-24T14:10:02.647Z,100277.84
2023-02-24T14:12:32.801Z,100285.63
2023-02-24T14:15:00.636Z,100282.22
2023-02-24T14:17:33.046Z,100280.13
2023-02-24T14:20:09.628Z,100273.97
2023-02-24T14:22:48.835Z,100279.50
2023-02-24T14:25:18.843Z,100269.28
2023-02-24T14:27:49.771Z,100272.19
2023-02-24T14:30:38.799Z,100276.75
2023-02-24T14:33:08.042Z,100264.91
2023-02-24T14:35:43.300Z,100267.84
2023-02-24T14:38:31.966Z,100263.78
2023-02-24T14:40:59.577Z,100277.25
2023-02-24T14:43:27.357Z,100277.22
2023-02-24T14:46:06.278Z,100271.06
2023-02-24T14:48:33.928Z,100294.06
2023-02-24T14:51:24.251Z,100278.19
2023-02-24T14:53:57.904Z,100281.59
2023-02-24T14:56:30.694Z,100278.84
2023-02-24T14:59:04.509Z,100272.84
2023-02-24T15:01:38.311Z,100253.75
2023-02-24T15:04:43.648Z,100251.75
2023-02-24T15:07:20.060Z,100253.81
2023-02-24T15:09:48.600Z,100248.81
2023-02-24T15:12:19.000Z,100245.72
2023-02-24T15:15:01.212Z,100241.41
2023-02-24T15:17:29.341Z,100226.34
2023-02-24T15:19:56.894Z,100237.06
2023-02-24T15:22:33.560Z,100221.34
2023-02-24T15:25:24.033Z,100220.88
2023-02-24T15:27:59.532Z,100220.06
2023-02-24T15:30:40.897Z,100215.38
2023-02-24T15:33:21.240Z,100225.06
2023-02-24T15:35:51.376Z,100239.00
2023-02-24T15:38:24.076Z,100225.06
2023-02-24T15:40:53.875Z,100235.09
2023-02-24T15:43:37.237Z,100233.00
2023-02-24T15:46:28.755Z,100227.50
2023-02-24T15:48:58.220Z,100232.59
2023-02-24T15:51:37.881Z,100238.09
2023-02-24T15:54:08.608Z,100236.78
2023-02-24T15:56:36.513Z,100237.13
2023-02-24T15:59:03.841Z,100235.03
2023-02-24T16:01:31.489Z,100231.72
2023-02-24T16:04:04.891Z,100219.56
2023-02-24T16:06:33.939Z,100231.78
2023-02-24T16:09:05.315Z,100225.72
2023-02-24T16:11:36.716Z,100215.19
2023-02-24T16:14:04.383Z,100215.22
2023-02-24T16:16:33.506Z,100211.47
2023-02-24T16:19:01.054Z,100214.72
2023-02-24T16:21:28.527Z,100209.03
2023-02-24T16:23:56.307Z,100216.09
2023-02-24T16:26:27.390Z,100218.91
2023-02-24T16:28:57.110Z,100209.88
2023-02-24T16:31:26.761Z,100212.53
2023-02-24T16:33:56.086Z,100214.84
2023-02-24T16:36:25.528Z,100214.84
2023-02-24T16:38:53.229Z,100212.78
2023-02-24T16:41:21.122Z,100216.75
2023-02-24T16:43:48.597Z,100221.28
2023-02-24T16:46:18.582Z,100227.50
2023-02-24T16:48:48.281Z,100221.91
2023-02-24T16:51:16.297Z,100221.44
2023-02-24T16:53:43.884Z,100225.44
2023-02-24T16:56:12.609Z,100213.84
2023-02-24T16:58:39.992Z,100225.94
2023-02-24T17:01:07.664Z,100241.50
2023-02-24T17:03:42.771Z,100240.84
2023-02-24T17:06:10.227Z,100236.59
2023-02-24T17:08:37.886Z,100238.59
2023-02-24T17:11:05.412Z,100242.13
2023-02-24T17:13:32.807Z,100243.06
2023-02-24T17:16:00.293Z,100245.59
2023-02-24T17:18:27.745Z,100245.31
2023-02-24T17:20:55.473Z,100245.75
2023-02-24T17:23:23.059Z,100253.03
2023-02-24T17:25:53.730Z,100241.50
2023-02-24T17:28:21.241Z,100245.94
2023-02-24T17:30:48.655Z,100256.94
2023-02-24T17:33:16.316Z,100254.91
2023-02-24T17:35:44.128Z,100261.34
2023-02-24T17:38:19.108Z,100265.09
2023-02-24T17:40:47.308Z,100269.19
2023-02-24T17:43:14.900Z,100267.13
2023-02-24T17:45:45.561Z,100264.56
2023-02-24T17:48:14.615Z,100270.22
2023-02-24T17:50:43.071Z,100270.88
2023-02-24T17:53:10.662Z,100280.53
2023-02-24T17:55:37.951Z,100276.97
2023-02-24T17:58:05.384Z,100273.31
2023-02-24T18:00:32.844Z,100285.91
2023-02-24T18:03:02.965Z,100283.94
2023-02-24T18:05:31.699Z,100289.56
2023-02-24T18:07:59.214Z,100288.41
2023-02-24T18:10:27.400Z,100284.69
2023-02-24T18:12:54.748Z,100297.56
2023-02-24T18:15:22.622Z,100290.44
2023-02-24T18:17:50.097Z,100296.63
2023-02-24T18:20:17.898Z,100302.78
2023-02-24T18:22:45.528Z,100295.13
2023-02-24T18:25:13.632Z,100315.25
2023-02-24T18:27:41.376Z,100300.06
2023-02-24T18:30:10.267Z,100306.00
2023-02-24T18:32:44.594Z,100312.59
2023-02-24T18:35:12.952Z,100317.38
2023-02-24T18:37:40.428Z,100318.88
2023-02-24T18:40:08.280Z,100319.25
2023-02-24T18:42:35.595Z,100320.63
2023-02-24T18:45:03.341Z,100334.47
2023-02-24T18:47:30.708Z,100334.06
2023-02-24T18:49:58.169Z,100336.75
2023-02-24T18:52:25.636Z,100335.53
2023-02-24T18:54:53.209Z,100345.28
2023-02-24T18:57:20.611Z,100337.03
2023-02-24T18:59:50.978Z,100344.91
2023-02-24T19:02:18.415Z,100351.50
2023-02-24T19:04:46.130Z,100357.38
2023-02-24T19:07:13.674Z,100350.22
2023-02-24T19:09:42.610Z,100337.72
2023-02-24T19:12:09.964Z,100340.72
2023-02-24T19:14:37.282Z,100337.59
2023-02-24T19:17:04.713Z,100335.78
2023-02-24T19:19:32.201Z,100329.84
2023-02-24T19:22:00.234Z,100334.13
2023-02-24T19:24:28.143Z,100339.66
2023-02-24T19:26:56.011Z,100339.53
2023-02-24T19:29:23.536Z,100350.84
2023-02-24T19:31:54.199Z,100335.84
2023-02-24T19:34:22.677Z,100348.97
2023-02-24T19:36:50.197Z,100366.13
2023-02-24T19:39:18.941Z,100362.22
2023-02-24T19:41:48.549Z,100360.31
2023-02-24T19:44:17.163Z,100367.53
2023-02-24T19:46:44.678Z,100373.94
2023-02-24T19:49:11.973Z,100372.69
2023-02-24T19:51:39.263Z,100379.81
2023-02-24T19:54:06.909Z,100363.56
2023-02-24T19:56:36.608Z,100371.50
2023-02-24T19:59:05.561Z,100374.06
2023-02-24T20:01:33.126Z,100395.84
2023-02-24T20:04:02.478Z,100393.66
2023-02-24T20:06:36.414Z,100398.38
2023-02-24T20:09:21.847Z,100408.53
2023-02-24T20:11:50.597Z,100406.72
2023-02-24T20:14:19.892Z,100415.25
2023-02-24T20:16:47.940Z,100418.59
2023-02-24T20:19:15.683Z,100418.66
2023-02-24T20:21:43.180Z,100408.03
2023-02-24T20:24:13.974Z,100422.16
2023-02-24T20:26:43.357Z,100409.75
2023-02-24T20:29:11.506Z,100414.56
2023-02-24T20:31:40.512Z,100410.56
2023-02-24T20:34:09.385Z,100411.69
2023-02-24T20:36:37.203Z,100400.63
2023-02-24T20:39:06.584Z,100407.81
2023-02-24T20:41:34.743Z,100407.41
2023-02-24T20:44:02.186Z,100414.75
2023-02-24T20:46:31.595Z,100400.78
2023-02-24T20:49:05.478Z,100405.63
2023-02-24T20:51:34.328Z,100402.00
2023-02-24T20:54:01.602Z,100407.28
2023-02-24T20:56:34.162Z,100408.66
2023-02-24T20:59:04.698Z,100402.72
2023-02-24T21:01:33.196Z,100405.38
2023-02-24T21:04:01.073Z,100406.59
2023-02-24T21:06:29.034Z,100405.28
2023-02-24T21:08:57.333Z,100411.00
2023-02-24T21:11:25.410Z,100412.63
2023-02-24T21:13:53.052Z,100411.91
2023-02-24T21:16:21.773Z,100412.63
2023-02-24T21:18:50.566Z,100426.63
2023-02-24T21:21:19.551Z,100432.00
2023-02-24T21:23:47.392Z,100423.59
2023-02-24T21:26:14.967Z,100426.34
2023-02-24T21:28:42.453Z,100435.75
2023-02-24T21:31:13.250Z,100435.28
2023-02-24T21:33:41.183Z,100441.06
2023-02-24T21:36:13.562Z,100444.69
2023-02-24T21:38:41.462Z,100439.31
2023-02-24T21:41:13.337Z,100455.41
2023-02-24T21:43:41.563Z,100455.53
2023-02-24T21:46:09.294Z,100461.47
2023-02-24T21:48:37.278Z,100464.75
2023-02-24T21:51:06.934Z,100473.78
2023-02-24T21:53:35.856Z,100478.09
2023-02-24T21:56:16.373Z,100484.22
2023-02-24T21:58:58.480Z,100491.09
2023-02-24T22:01:34.727Z,100482.31
2023-02-24T22:04:04.825Z,100491.31
2023-02-24T22:06:34.957Z,100495.34
2023-02-24T22:09:04.554Z,100490.78
2023-02-24T22:11:35.249Z,100493.44
2023-02-24T22:14:03.113Z,100504.50
2023-02-24T22:16:30.616Z,100503.78
2023-02-24T22:18:58.226Z,100500.25
2023-02-24T22:21:27.490Z,100499.44
2023-02-24T22:23:57.740Z,100500.59
2023-02-24T22:26:26.832Z,100506.53
2023-02-24T22:28:55.108Z,100514.00
2023-02-24T22:31:26.090Z,100522.66
2023-02-24T22:33:54.377Z,100512.28
2023-02-24T22:36:25.202Z,100529.25
2023-02-24T22:38:57.229Z,100522.78
2023-02-24T22:41:31.346Z,100523.88
2023-02-24T22:43:59.840Z,100526.81
2023-02-24T22:46:33.027Z,100532.28
2023-02-24T22:49:00.752Z,100533.06
2023-02-24T22:51:28.630Z,100522.97
2023-02-24T22:53:56.761Z,100528.56
2023-02-24T22:56:26.422Z,100528.22
2023-02-24T22:58:56.089Z,100535.84
2023-02-24T23:01:26.466Z,100529.84
2023-02-24T23:03:54.125Z,100545.41
2023-02-24T23:06:24.031Z,100525.16
2023-02-24T23:08:51.799Z,100535.69
2023-02-24T23:11:24.936Z,100543.91
2023-02-24T23:13:52.696Z,100537.56
2023-02-24T23:16:27.376Z,100552.03
2023-02-24T23:18:58.320Z,100550.66
2023-02-24T23:21:31.494Z,100555.69
2023-02-24T23:24:00.263Z,100547.16
2023-02-24T23:26:31.607Z,100544.44
2023-02-24T23:28:59.567Z,100549.75
2023-02-24T23:31:27.403Z,100552.06
2023-02-24T23:33:55.125Z,100558.94
2023-02-24T23:36:24.008Z,100552.66
2023-02-24T23:38:52.781Z,100552.75
2023-02-24T23:41:20.246Z,100561.38
2023-02-24T23:43:47.696Z,100562.88
2023-02-24T23:46:15.177Z,100563.97
2023-02-24T23:48:42.496Z,100565.97
2023-02-24T23:51:13.934Z,100569.22
2023-02-24T23:53:43.142Z,100572.63
2023-02-24T23:56:31.738Z,100567.38
2023-02-24T23:58:59.482Z,100576.91
